sensor_id;sensor_type;location;lat;lon;timestamp;pressure;altitude;pressure_sealevel;temperature;humidity
82858;BME280;72620;47.774;9.620;2023-09-19T00:02:03;96178.03;;;16.01;82.88
82858;BME280;72620;47.774;9.620;2023-09-19T00:04:32;96176.03;;;16.03;82.74
82858;BME280;72620;47.774;9.620;2023-09-19T00:06:59;96174.88;;;16.06;82.49
82858;BME280;72620;47.774;9.620;2023-09-19T00:09:29;96168.72;;;16.07;82.52
82858;BME280;72620;47.774;9.620;2023-09-19T00:11:57;96174.50;;;16.09;82.09
82858;BME280;72620;47.774;9.620;2023-09-19T00:14:25;96170.75;;;16.11;82.48
82858;BME280;72620;47.774;9.620;2023-09-19T00:16:52;96168.31;;;16.10;82.77
82858;BME280;72620;47.774;9.620;2023-09-19T00:19:19;96173.34;;;16.11;82.52
82858;BME280;72620;47.774;9.620;2023-09-19T00:21:46;96167.56;;;16.09;82.67
82858;BME280;72620;47.774;9.620;2023-09-19T00:24:13;96178.88;;;16.08;82.74
82858;BME280;72620;47.774;9.620;2023-09-19T00:26:40;96174.88;;;16.06;82.54
82858;BME280;72620;47.774;9.620;2023-09-19T00:29:11;96171.31;;;16.07;82.48
82858;BME280;72620;47.774;9.620;2023-09-19T00:31:43;96171.31;;;16.07;82.30
82858;BME280;72620;47.774;9.620;2023-09-19T00:34:11;96188.47;;;16.14;82.22
82858;BME280;72620;47.774;9.620;2023-09-19T00:36:39;96186.69;;;16.15;82.66
82858;BME280;72620;47.774;9.620;2023-09-19T00:39:06;96186.69;;;16.15;82.66
82858;BME280;72620;47.774;9.620;2023-09-19T00:41:35;96184.66;;;16.10;82.34
82858;BME280;72620;47.774;9.620;2023-09-19T00:44:05;96178.69;;;16.10;82.93
82858;BME280;72620;47.774;9.620;2023-09-19T00:46:32;96179.50;;;16.10;82.80
82858;BME280;72620;47.774;9.620;2023-09-19T00:49:01;96180.31;;;16.11;82.55
82858;BME280;72620;47.774;9.620;2023-09-19T00:51:28;96180.09;;;16.12;82.49
82858;BME280;72620;47.774;9.620;2023-09-19T00:53:56;96192.06;;;16.13;82.39
82858;BME280;72620;47.774;9.620;2023-09-19T00:56:26;96186.09;;;16.13;82.14
82858;BME280;72620;47.774;9.620;2023-09-19T00:58:53;96184.91;;;16.15;81.55
82858;BME280;72620;47.774;9.620;2023-09-19T01:01:21;96194.31;;;16.16;82.46
82858;BME280;72620;47.774;9.620;2023-09-19T01:03:49;96199.09;;;16.19;81.96
82858;BME280;72620;47.774;9.620;2023-09-19T01:06:16;96198.13;;;16.20;81.39
82858;BME280;72620;47.774;9.620;2023-09-19T01:08:44;96195.13;;;16.23;82.04
82858;BME280;72620;47.774;9.620;2023-09-19T01:11:21;96191.56;;;16.24;81.93
82858;BME280;72620;47.774;9.620;2023-09-19T01:17:14;96209.94;;;16.29;81.31
82858;BME280;72620;47.774;9.620;2023-09-19T01:26:37;96198.97;;;16.27;81.53
82858;BME280;72620;47.774;9.620;2023-09-19T01:29:46;96194.41;;;16.29;82.10
82858;BME280;72620;47.774;9.620;2023-09-19T01:32:17;96201.00;;;16.32;81.43
82858;BME280;72620;47.774;9.620;2023-09-19T01:34:55;96195.81;;;16.32;81.98
82858;BME280;72620;47.774;9.620;2023-09-19T01:37:26;96194.63;;;16.34;81.34
82858;BME280;72620;47.774;9.620;2023-09-19T01:40:06;96193.44;;;16.37;81.83
82858;BME280;72620;47.774;9.620;2023-09-19T01:43:08;96200.44;;;16.36;82.02
82858;BME280;72620;47.774;9.620;2023-09-19T01:46:02;96186.28;;;16.39;80.56
82858;BME280;72620;47.774;9.620;2023-09-19T01:49:13;96194.44;;;16.36;81.34
82858;BME280;72620;47.774;9.620;2023-09-19T01:52:09;96196.66;;;16.39;81.17
82858;BME280;72620;47.774;9.620;2023-09-19T01:54:50;96192.66;;;16.36;81.31
82858;BME280;72620;47.774;9.620;2023-09-19T01:57:28;96190.28;;;16.41;79.82
82858;BME280;72620;47.774;9.620;2023-09-19T02:00:07;96196.09;;;16.43;80.34
82858;BME280;72620;47.774;9.620;2023-09-19T02:02:46;96206.44;;;16.43;80.59
82858;BME280;72620;47.774;9.620;2023-09-19T02:05:25;96202.28;;;16.42;79.94
82858;BME280;72620;47.774;9.620;2023-09-19T02:07:54;96206.06;;;16.46;79.56
82858;BME280;72620;47.774;9.620;2023-09-19T02:10:22;96206.88;;;16.47;81.41
82858;BME280;72620;47.774;9.620;2023-09-19T02:12:50;96208.66;;;16.46;80.20
82858;BME280;72620;47.774;9.620;2023-09-19T02:15:18;96212.69;;;16.49;79.50
82858;BME280;72620;47.774;9.620;2023-09-19T02:17:45;96212.50;;;16.50;79.28
82858;BME280;72620;47.774;9.620;2023-09-19T02:20:13;96228.22;;;16.49;81.97
82858;BME280;72620;47.774;9.620;2023-09-19T02:22:41;96217.41;;;16.45;81.08
82858;BME280;72620;47.774;9.620;2023-09-19T02:25:09;96222.19;;;16.42;82.32
82858;BME280;72620;47.774;9.620;2023-09-19T02:27:36;96219.78;;;16.40;80.19
82858;BME280;72620;47.774;9.620;2023-09-19T02:30:04;96225.75;;;16.41;80.49
82858;BME280;72620;47.774;9.620;2023-09-19T02:32:33;96224.97;;;16.40;80.08
82858;BME280;72620;47.774;9.620;2023-09-19T02:35:06;96229.16;;;16.41;82.38
82858;BME280;72620;47.774;9.620;2023-09-19T02:37:34;96227.31;;;16.35;79.90
82858;BME280;72620;47.774;9.620;2023-09-19T02:40:02;96233.31;;;16.36;79.47
82858;BME280;72620;47.774;9.620;2023-09-19T02:42:29;96233.72;;;16.39;78.75
82858;BME280;72620;47.774;9.620;2023-09-19T02:44:57;96243.72;;;16.42;79.22
82858;BME280;72620;47.774;9.620;2023-09-19T02:47:24;96234.94;;;16.43;80.68
82858;BME280;72620;47.774;9.620;2023-09-19T02:49:51;96234.94;;;16.43;80.68
82858;BME280;72620;47.774;9.620;2023-09-19T02:52:19;96246.66;;;16.39;80.60
82858;BME280;72620;47.774;9.620;2023-09-19T02:54:46;96243.06;;;16.34;78.89
82858;BME280;72620;47.774;9.620;2023-09-19T02:57:13;96241.44;;;16.33;80.82
82858;BME280;72620;47.774;9.620;2023-09-19T02:59:42;96252.97;;;16.30;82.06
82858;BME280;72620;47.774;9.620;2023-09-19T03:02:10;96252.72;;;16.25;84.38
82858;BME280;72620;47.774;9.620;2023-09-19T03:04:37;96254.06;;;16.21;82.72
82858;BME280;72620;47.774;9.620;2023-09-19T03:07:04;96252.66;;;16.19;82.72
82858;BME280;72620;47.774;9.620;2023-09-19T03:09:32;96260.44;;;16.19;81.67
82858;BME280;72620;47.774;9.620;2023-09-19T03:11:59;96254.03;;;16.15;82.26
82858;BME280;72620;47.774;9.620;2023-09-19T03:14:27;96251.00;;;16.11;82.60
82858;BME280;72620;47.774;9.620;2023-09-19T03:16:57;96257.97;;;16.11;82.95
82858;BME280;72620;47.774;9.620;2023-09-19T03:19:24;96256.56;;;16.08;82.38
82858;BME280;72620;47.774;9.620;2023-09-19T03:21:53;96265.13;;;16.09;83.08
82858;BME280;72620;47.774;9.620;2023-09-19T03:24:22;96268.88;;;16.06;82.74
82858;BME280;72620;47.774;9.620;2023-09-19T03:26:50;96260.84;;;16.01;84.02
82858;BME280;72620;47.774;9.620;2023-09-19T03:29:18;96266.78;;;15.95;83.55
82858;BME280;72620;47.774;9.620;2023-09-19T03:31:47;96267.66;;;16.02;83.58
82858;BME280;72620;47.774;9.620;2023-09-19T03:34:15;96267.66;;;16.02;83.58
82858;BME280;72620;47.774;9.620;2023-09-19T03:36:43;96253.47;;;15.98;84.00
82858;BME280;72620;47.774;9.620;2023-09-19T03:39:10;96248.91;;;16.00;83.30
82858;BME280;72620;47.774;9.620;2023-09-19T03:41:39;96254.50;;;16.04;81.63
82858;BME280;72620;47.774;9.620;2023-09-19T03:44:06;96248.97;;;16.07;83.01
82858;BME280;72620;47.774;9.620;2023-09-19T03:46:34;96253.00;;;16.09;82.92
82858;BME280;72620;47.774;9.620;2023-09-19T03:49:02;96253.41;;;16.13;82.47
82858;BME280;72620;47.774;9.620;2023-09-19T03:51:30;96248.22;;;16.13;82.00
82858;BME280;72620;47.774;9.620;2023-09-19T03:53:57;96256.59;;;16.15;82.33
82858;BME280;72620;47.774;9.620;2023-09-19T03:56:26;96257.78;;;16.12;82.42
82858;BME280;72620;47.774;9.620;2023-09-19T03:58:53;96254.41;;;16.12;84.12
82858;BME280;72620;47.774;9.620;2023-09-19T04:01:20;96256.81;;;16.13;82.96
82858;BME280;72620;47.774;9.620;2023-09-19T04:03:47;96256.81;;;16.13;82.96
82858;BME280;72620;47.774;9.620;2023-09-19T04:06:15;96252.44;;;16.14;83.18
82858;BME280;72620;47.774;9.620;2023-09-19T04:08:43;96252.44;;;16.14;83.18
82858;BME280;72620;47.774;9.620;2023-09-19T04:11:11;96237.00;;;16.06;83.55
82858;BME280;72620;47.774;9.620;2023-09-19T04:13:38;96244.59;;;16.07;82.59
82858;BME280;72620;47.774;9.620;2023-09-19T04:16:06;96245.78;;;16.05;83.42
82858;BME280;72620;47.774;9.620;2023-09-19T04:18:33;96239.78;;;16.04;83.42
82858;BME280;72620;47.774;9.620;2023-09-19T04:21:04;96247.75;;;16.03;82.96
82858;BME280;72620;47.774;9.620;2023-09-19T04:23:32;96250.50;;;16.01;82.97
82858;BME280;72620;47.774;9.620;2023-09-19T04:26:00;96251.88;;;15.97;82.71
82858;BME280;72620;47.774;9.620;2023-09-19T04:28:27;96251.88;;;15.97;83.28
82858;BME280;72620;47.774;9.620;2023-09-19T04:30:54;96251.59;;;15.92;83.76
82858;BME280;72620;47.774;9.620;2023-09-19T04:33:22;96245.41;;;15.86;85.03
82858;BME280;72620;47.774;9.620;2023-09-19T04:35:50;96244.78;;;15.84;84.72
82858;BME280;72620;47.774;9.620;2023-09-19T04:38:18;96254.53;;;15.82;84.71
82858;BME280;72620;47.774;9.620;2023-09-19T04:40:46;96251.94;;;15.82;84.10
82858;BME280;72620;47.774;9.620;2023-09-19T04:43:14;96257.47;;;15.79;84.06
82858;BME280;72620;47.774;9.620;2023-09-19T04:45:43;96267.34;;;15.76;84.12
82858;BME280;72620;47.774;9.620;2023-09-19T04:48:10;96262.84;;;15.78;83.27
82858;BME280;72620;47.774;9.620;2023-09-19T04:50:38;96268.84;;;15.85;83.85
82858;BME280;72620;47.774;9.620;2023-09-19T04:53:05;96272.50;;;15.90;82.88
82858;BME280;72620;47.774;9.620;2023-09-19T04:55:33;96271.53;;;15.91;82.60
82858;BME280;72620;47.774;9.620;2023-09-19T04:58:03;96275.16;;;15.97;82.73
82858;BME280;72620;47.774;9.620;2023-09-19T05:00:33;96273.19;;;15.99;82.89
82858;BME280;72620;47.774;9.620;2023-09-19T05:03:02;96274.41;;;16.03;82.35
82858;BME280;72620;47.774;9.620;2023-09-19T05:05:31;96279.25;;;16.06;82.05
82858;BME280;72620;47.774;9.620;2023-09-19T05:07:59;96277.25;;;16.08;82.39
82858;BME280;72620;47.774;9.620;2023-09-19T05:10:32;96288.50;;;16.15;82.53
82858;BME280;72620;47.774;9.620;2023-09-19T05:12:59;96288.50;;;16.15;82.53
82858;BME280;72620;47.774;9.620;2023-09-19T05:15:27;96279.66;;;16.10;82.34
82858;BME280;72620;47.774;9.620;2023-09-19T05:17:54;96294.41;;;16.09;81.81
82858;BME280;72620;47.774;9.620;2023-09-19T05:20:24;96305.19;;;16.13;82.16
82858;BME280;72620;47.774;9.620;2023-09-19T05:23:06;96302.78;;;16.11;83.34
82858;BME280;72620;47.774;9.620;2023-09-19T05:25:39;96298.59;;;16.10;82.22
82858;BME280;72620;47.774;9.620;2023-09-19T05:28:09;96304.78;;;16.09;82.20
82858;BME280;72620;47.774;9.620;2023-09-19T05:30:38;96302.53;;;16.06;84.13
82858;BME280;72620;47.774;9.620;2023-09-19T05:33:07;96299.59;;;16.09;82.05
82858;BME280;72620;47.774;9.620;2023-09-19T05:35:35;96302.78;;;16.11;82.26
82858;BME280;72620;47.774;9.620;2023-09-19T05:38:08;96301.25;;;16.17;82.52
82858;BME280;72620;47.774;9.620;2023-09-19T05:40:36;96303.28;;;16.21;82.73
82858;BME280;72620;47.774;9.620;2023-09-19T05:43:05;96311.13;;;16.28;82.60
82858;BME280;72620;47.774;9.620;2023-09-19T05:45:33;96308.97;;;16.31;81.17
82858;BME280;72620;47.774;9.620;2023-09-19T05:48:13;96315.38;;;16.35;83.21
82858;BME280;72620;47.774;9.620;2023-09-19T05:50:44;96320.63;;;16.42;82.77
82858;BME280;72620;47.774;9.620;2023-09-19T05:53:15;96321.84;;;16.46;80.26
82858;BME280;72620;47.774;9.620;2023-09-19T05:55:43;96326.16;;;16.53;78.36
82858;BME280;72620;47.774;9.620;2023-09-19T05:58:10;96321.81;;;16.60;78.72
82858;BME280;72620;47.774;9.620;2023-09-19T06:00:40;96327.31;;;16.72;79.74
82858;BME280;72620;47.774;9.620;2023-09-19T06:03:09;96334.53;;;16.77;77.04
82858;BME280;72620;47.774;9.620;2023-09-19T06:05:38;96338.16;;;16.82;78.78
82858;BME280;72620;47.774;9.620;2023-09-19T06:08:06;96347.34;;;16.85;77.49
82858;BME280;72620;47.774;9.620;2023-09-19T06:10:35;96347.13;;;16.86;78.20
82858;BME280;72620;47.774;9.620;2023-09-19T06:13:03;96341.78;;;16.88;77.04
82858;BME280;72620;47.774;9.620;2023-09-19T06:15:36;96349.00;;;16.92;77.30
82858;BME280;72620;47.774;9.620;2023-09-19T06:18:04;96348.38;;;16.90;79.18
82858;BME280;72620;47.774;9.620;2023-09-19T06:20:32;96354.97;;;16.93;77.22
82858;BME280;72620;47.774;9.620;2023-09-19T06:23:00;96354.41;;;16.97;80.03
82858;BME280;72620;47.774;9.620;2023-09-19T06:25:29;96364.91;;;17.10;77.62
82858;BME280;72620;47.774;9.620;2023-09-19T06:27:57;96364.91;;;17.10;77.62
82858;BME280;72620;47.774;9.620;2023-09-19T06:30:24;96367.94;;;17.20;78.58
82858;BME280;72620;47.774;9.620;2023-09-19T06:32:59;96370.06;;;17.38;77.04
82858;BME280;72620;47.774;9.620;2023-09-19T06:35:28;96370.19;;;17.58;76.42
82858;BME280;72620;47.774;9.620;2023-09-19T06:38:03;96373.53;;;17.79;74.09
82858;BME280;72620;47.774;9.620;2023-09-19T06:40:31;96373.38;;;17.94;73.83
82858;BME280;72620;47.774;9.620;2023-09-19T06:42:58;96375.56;;;17.90;73.60
82858;BME280;72620;47.774;9.620;2023-09-19T06:45:29;96375.59;;;17.97;73.53
82858;BME280;72620;47.774;9.620;2023-09-19T06:47:56;96375.25;;;18.06;72.70
82858;BME280;72620;47.774;9.620;2023-09-19T06:50:26;96369.25;;;18.06;71.63
82858;BME280;72620;47.774;9.620;2023-09-19T06:52:55;96372.09;;;18.18;72.99
82858;BME280;72620;47.774;9.620;2023-09-19T06:55:25;96378.91;;;18.32;71.97
82858;BME280;72620;47.774;9.620;2023-09-19T06:57:59;96375.72;;;18.36;72.32
82858;BME280;72620;47.774;9.620;2023-09-19T07:00:26;96373.53;;;18.33;71.36
82858;BME280;72620;47.774;9.620;2023-09-19T07:02:58;96373.53;;;18.33;74.19
82858;BME280;72620;47.774;9.620;2023-09-19T07:05:28;96372.72;;;18.39;71.52
82858;BME280;72620;47.774;9.620;2023-09-19T07:07:59;96376.91;;;18.34;71.32
82858;BME280;72620;47.774;9.620;2023-09-19T07:10:28;96386.91;;;18.30;71.84
82858;BME280;72620;47.774;9.620;2023-09-19T07:12:58;96397.88;;;18.26;73.17
82858;BME280;72620;47.774;9.620;2023-09-19T07:15:28;96392.25;;;18.16;72.30
82858;BME280;72620;47.774;9.620;2023-09-19T07:17:57;96399.25;;;18.22;72.93
82858;BME280;72620;47.774;9.620;2023-09-19T07:20:24;96409.66;;;18.22;71.51
82858;BME280;72620;47.774;9.620;2023-09-19T07:22:59;96400.25;;;18.21;70.87
82858;BME280;72620;47.774;9.620;2023-09-19T07:25:27;96409.31;;;18.38;71.55
82858;BME280;72620;47.774;9.620;2023-09-19T07:27:56;96411.78;;;18.59;70.22
82858;BME280;72620;47.774;9.620;2023-09-19T07:30:27;96407.78;;;18.56;72.35
82858;BME280;72620;47.774;9.620;2023-09-19T07:32:56;96400.50;;;18.39;71.23
82858;BME280;72620;47.774;9.620;2023-09-19T07:35:23;96411.09;;;18.37;70.71
82858;BME280;72620;47.774;9.620;2023-09-19T07:37:51;96412.19;;;18.56;70.91
82858;BME280;72620;47.774;9.620;2023-09-19T07:40:23;96414.63;;;18.77;70.46
82858;BME280;72620;47.774;9.620;2023-09-19T07:42:54;96406.66;;;18.98;68.67
82858;BME280;72620;47.774;9.620;2023-09-19T07:45:22;96421.09;;;19.40;67.40
82858;BME280;72620;47.774;9.620;2023-09-19T07:47:51;96421.09;;;19.40;67.40
82858;BME280;72620;47.774;9.620;2023-09-19T07:50:19;96419.47;;;19.52;67.97
82858;BME280;72620;47.774;9.620;2023-09-19T07:52:50;96422.69;;;19.41;68.56
82858;BME280;72620;47.774;9.620;2023-09-19T07:55:22;96423.47;;;19.48;66.52
82858;BME280;72620;47.774;9.620;2023-09-19T07:57:52;96429.50;;;19.35;69.70
82858;BME280;72620;47.774;9.620;2023-09-19T08:00:19;96423.28;;;19.43;69.49
82858;BME280;72620;47.774;9.620;2023-09-19T08:02:47;96427.31;;;19.45;67.08
82858;BME280;72620;47.774;9.620;2023-09-19T08:05:26;96434.28;;;19.51;67.72
82858;BME280;72620;47.774;9.620;2023-09-19T08:07:54;96431.50;;;19.46;67.78
82858;BME280;72620;47.774;9.620;2023-09-19T08:10:24;96434.28;;;19.51;67.40
82858;BME280;72620;47.774;9.620;2023-09-19T08:12:54;96438.09;;;19.56;67.65
82858;BME280;72620;47.774;9.620;2023-09-19T08:15:25;96434.88;;;19.67;66.83
82858;BME280;72620;47.774;9.620;2023-09-19T08:17:52;96437.47;;;19.60;67.64
82858;BME280;72620;47.774;9.620;2023-09-19T08:20:20;96444.50;;;19.53;69.95
82858;BME280;72620;47.774;9.620;2023-09-19T08:22:49;96449.28;;;19.69;65.73
82858;BME280;72620;47.774;9.620;2023-09-19T08:25:23;96449.28;;;19.69;65.73
82858;BME280;72620;47.774;9.620;2023-09-19T08:27:55;96443.00;;;20.03;65.01
82858;BME280;72620;47.774;9.620;2023-09-19T08:30:24;96443.00;;;20.03;65.01
82858;BME280;72620;47.774;9.620;2023-09-19T08:32:57;96438.09;;;20.39;62.52
82858;BME280;72620;47.774;9.620;2023-09-19T08:35:26;96447.63;;;20.58;64.38
82858;BME280;72620;47.774;9.620;2023-09-19T08:37:54;96452.63;;;20.02;65.40
82858;BME280;72620;47.774;9.620;2023-09-19T08:40:23;96450.97;;;20.28;64.63
82858;BME280;72620;47.774;9.620;2023-09-19T08:42:53;96457.00;;;21.04;63.41
82858;BME280;72620;47.774;9.620;2023-09-19T08:45:26;96446.66;;;22.44;55.66
82858;BME280;72620;47.774;9.620;2023-09-19T08:50:42;96447.25;;;23.05;54.01
82858;BME280;72620;47.774;9.620;2023-09-19T08:56:17;96455.81;;;22.71;53.88
82858;BME280;72620;47.774;9.620;2023-09-19T09:01:18;96447.56;;;23.38;53.80
82858;BME280;72620;47.774;9.620;2023-09-19T09:03:53;96454.53;;;24.02;52.41
82858;BME280;72620;47.774;9.620;2023-09-19T09:06:23;96454.53;;;24.02;52.41
82858;BME280;72620;47.774;9.620;2023-09-19T09:08:51;96442.34;;;24.59;50.61
82858;BME280;72620;47.774;9.620;2023-09-19T09:11:20;96452.84;;;25.82;50.04
82858;BME280;72620;47.774;9.620;2023-09-19T09:13:48;96446.78;;;25.32;45.48
82858;BME280;72620;47.774;9.620;2023-09-19T09:16:16;96448.22;;;24.38;48.09
82858;BME280;72620;47.774;9.620;2023-09-19T09:18:46;96453.84;;;23.84;49.95
82858;BME280;72620;47.774;9.620;2023-09-19T09:21:21;96458.28;;;23.37;52.53
82858;BME280;72620;47.774;9.620;2023-09-19T09:23:52;96468.66;;;23.02;53.05
82858;BME280;72620;47.774;9.620;2023-09-19T09:29:06;96461.19;;;22.39;53.41
82858;BME280;72620;47.774;9.620;2023-09-19T09:31:33;96466.44;;;22.03;57.52
82858;BME280;72620;47.774;9.620;2023-09-19T09:34:01;96460.50;;;21.47;57.25
82858;BME280;72620;47.774;9.620;2023-09-19T09:36:38;96466.47;;;20.98;59.14
82858;BME280;72620;47.774;9.620;2023-09-19T09:39:10;96471.66;;;20.60;61.38
82858;BME280;72620;47.774;9.620;2023-09-19T09:41:52;96486.72;;;20.58;62.43
82858;BME280;72620;47.774;9.620;2023-09-19T09:44:20;96471.00;;;20.71;64.21
82858;BME280;72620;47.774;9.620;2023-09-19T09:46:49;96471.00;;;20.71;64.21
82858;BME280;72620;47.774;9.620;2023-09-19T09:49:24;96464.41;;;20.75;61.76
82858;BME280;72620;47.774;9.620;2023-09-19T09:52:04;96476.53;;;20.57;60.38
82858;BME280;72620;47.774;9.620;2023-09-19T09:55:03;96475.69;;;20.63;59.83
82858;BME280;72620;47.774;9.620;2023-09-19T09:57:33;96475.69;;;20.63;59.83
82858;BME280;72620;47.774;9.620;2023-09-19T10:00:03;96466.09;;;20.57;66.57
82858;BME280;72620;47.774;9.620;2023-09-19T10:02:40;96465.44;;;20.68;60.19
82858;BME280;72620;47.774;9.620;2023-09-19T10:05:14;96462.84;;;20.99;60.71
82858;BME280;72620;47.774;9.620;2023-09-19T10:08:11;96467.06;;;21.56;58.97
82858;BME280;72620;47.774;9.620;2023-09-19T10:10:53;96467.06;;;21.56;58.97
82858;BME280;72620;47.774;9.620;2023-09-19T10:13:25;96458.13;;;21.63;58.89
82858;BME280;72620;47.774;9.620;2023-09-19T10:15:59;96459.06;;;21.51;60.81
82858;BME280;72620;47.774;9.620;2023-09-19T10:18:36;96459.06;;;21.51;60.81
82858;BME280;72620;47.774;9.620;2023-09-19T10:21:09;96455.47;;;21.52;57.15
82858;BME280;72620;47.774;9.620;2023-09-19T10:23:38;96462.25;;;21.53;59.41
82858;BME280;72620;47.774;9.620;2023-09-19T10:26:11;96468.66;;;21.57;57.54
82858;BME280;72620;47.774;9.620;2023-09-19T10:28:39;96468.66;;;21.57;57.54
82858;BME280;72620;47.774;9.620;2023-09-19T10:31:07;96460.16;;;21.61;59.78
82858;BME280;72620;47.774;9.620;2023-09-19T10:33:36;96471.13;;;21.52;58.80
82858;BME280;72620;47.774;9.620;2023-09-19T10:36:05;96471.13;;;21.52;58.80
82858;BME280;72620;47.774;9.620;2023-09-19T10:38:35;96468.53;;;21.70;58.24
82858;BME280;72620;47.774;9.620;2023-09-19T10:41:10;96472.09;;;21.76;57.39
82858;BME280;72620;47.774;9.620;2023-09-19T10:43:42;96472.09;;;21.76;57.39
82858;BME280;72620;47.774;9.620;2023-09-19T10:46:13;96475.03;;;21.61;58.49
82858;BME280;72620;47.774;9.620;2023-09-19T10:48:41;96475.03;;;21.61;58.49
82858;BME280;72620;47.774;9.620;2023-09-19T10:51:20;96474.94;;;21.25;58.56
82858;BME280;72620;47.774;9.620;2023-09-19T10:54:05;96474.94;;;21.25;58.56
82858;BME280;72620;47.774;9.620;2023-09-19T10:56:47;96470.81;;;21.11;59.53
82858;BME280;72620;47.774;9.620;2023-09-19T10:59:19;96472.09;;;20.95;58.41
82858;BME280;72620;47.774;9.620;2023-09-19T11:01:50;96469.56;;;20.82;59.42
82858;BME280;72620;47.774;9.620;2023-09-19T11:04:36;96475.66;;;20.69;60.08
82858;BME280;72620;47.774;9.620;2023-09-19T11:07:09;96463.84;;;20.60;60.82
82858;BME280;72620;47.774;9.620;2023-09-19T11:09:52;96473.50;;;20.60;62.12
82858;BME280;72620;47.774;9.620;2023-09-19T11:14:58;96461.97;;;20.74;62.14
82858;BME280;72620;47.774;9.620;2023-09-19T11:17:35;96468.09;;;20.92;64.88
82858;BME280;72620;47.774;9.620;2023-09-19T11:30:33;96457.94;;;21.65;61.10
82858;BME280;72620;47.774;9.620;2023-09-19T11:33:26;96450.78;;;21.79;58.18
82858;BME280;72620;47.774;9.620;2023-09-19T11:38:57;96462.44;;;21.58;58.49
82858;BME280;72620;47.774;9.620;2023-09-19T11:46:33;96458.97;;;21.82;57.57
82858;BME280;72620;47.774;9.620;2023-09-19T11:49:08;96453.59;;;21.77;61.91
82858;BME280;72620;47.774;9.620;2023-09-19T11:51:41;96453.72;;;22.07;57.71
82858;BME280;72620;47.774;9.620;2023-09-19T11:54:14;96451.47;;;22.28;56.77
82858;BME280;72620;47.774;9.620;2023-09-19T11:56:52;96448.31;;;22.56;56.14
82858;BME280;72620;47.774;9.620;2023-09-19T11:59:24;96448.31;;;22.56;56.14
82858;BME280;72620;47.774;9.620;2023-09-19T12:01:57;96443.63;;;22.28;57.91
82858;BME280;72620;47.774;9.620;2023-09-19T12:04:35;96445.44;;;21.92;56.78
82858;BME280;72620;47.774;9.620;2023-09-19T12:07:12;96445.44;;;21.92;56.78
82858;BME280;72620;47.774;9.620;2023-09-19T12:09:45;96443.72;;;21.79;61.15
82858;BME280;72620;47.774;9.620;2023-09-19T12:12:23;96441.00;;;22.28;61.26
82858;BME280;72620;47.774;9.620;2023-09-19T12:14:56;96439.66;;;22.74;55.35
82858;BME280;72620;47.774;9.620;2023-09-19T12:17:41;96433.78;;;22.90;54.28
82858;BME280;72620;47.774;9.620;2023-09-19T12:20:10;96433.78;;;22.90;54.28
82858;BME280;72620;47.774;9.620;2023-09-19T12:22:40;96437.16;;;22.79;57.11
82858;BME280;72620;47.774;9.620;2023-09-19T12:25:07;96437.16;;;22.79;57.11
82858;BME280;72620;47.774;9.620;2023-09-19T12:27:46;96427.81;;;22.71;56.83
82858;BME280;72620;47.774;9.620;2023-09-19T12:30:15;96422.03;;;22.81;55.59
82858;BME280;72620;47.774;9.620;2023-09-19T12:32:48;96425.75;;;22.73;58.55
82858;BME280;72620;47.774;9.620;2023-09-19T12:35:33;96425.75;;;22.73;58.55
82858;BME280;72620;47.774;9.620;2023-09-19T12:38:03;96415.75;;;22.70;56.07
82858;BME280;72620;47.774;9.620;2023-09-19T12:40:32;96422.75;;;22.88;56.63
82858;BME280;72620;47.774;9.620;2023-09-19T12:43:01;96422.75;;;22.88;56.63
82858;BME280;72620;47.774;9.620;2023-09-19T12:45:33;96414.81;;;23.06;53.95
82858;BME280;72620;47.774;9.620;2023-09-19T12:53:37;96398.59;;;22.26;55.74
82858;BME280;72620;47.774;9.620;2023-09-19T12:56:24;96397.22;;;22.54;54.81
82858;BME280;72620;47.774;9.620;2023-09-19T12:58:55;96388.75;;;22.40;54.78
82858;BME280;72620;47.774;9.620;2023-09-19T13:01:28;96383.47;;;22.76;55.36
82858;BME280;72620;47.774;9.620;2023-09-19T13:06:49;96385.91;;;23.01;55.12
82858;BME280;72620;47.774;9.620;2023-09-19T13:09:21;96375.44;;;23.13;54.02
82858;BME280;72620;47.774;9.620;2023-09-19T13:11:51;96381.72;;;23.23;50.33
82858;BME280;72620;47.774;9.620;2023-09-19T13:14:25;96378.19;;;23.06;52.01
82858;BME280;72620;47.774;9.620;2023-09-19T13:17:08;96376.94;;;23.20;53.21
82858;BME280;72620;47.774;9.620;2023-09-19T13:19:48;96370.00;;;23.26;53.00
82858;BME280;72620;47.774;9.620;2023-09-19T13:22:39;96374.31;;;23.32;51.74
82858;BME280;72620;47.774;9.620;2023-09-19T13:25:10;96371.84;;;23.37;52.44
82858;BME280;72620;47.774;9.620;2023-09-19T13:27:46;96370.91;;;23.43;51.40
82858;BME280;72620;47.774;9.620;2023-09-19T13:30:25;96361.81;;;23.45;52.22
82858;BME280;72620;47.774;9.620;2023-09-19T13:33:09;96364.78;;;23.37;50.96
82858;BME280;72620;47.774;9.620;2023-09-19T13:35:38;96367.66;;;23.36;51.33
82858;BME280;72620;47.774;9.620;2023-09-19T13:38:08;96364.09;;;23.42;50.10
82858;BME280;72620;47.774;9.620;2023-09-19T13:40:40;96352.47;;;23.49;51.13
82858;BME280;72620;47.774;9.620;2023-09-19T13:43:09;96355.44;;;23.53;49.92
82858;BME280;72620;47.774;9.620;2023-09-19T13:45:37;96344.84;;;23.36;50.90
82858;BME280;72620;47.774;9.620;2023-09-19T13:48:05;96350.88;;;23.37;51.04
82858;BME280;72620;47.774;9.620;2023-09-19T13:50:32;96340.78;;;23.40;52.23
82858;BME280;72620;47.774;9.620;2023-09-19T13:53:01;96343.47;;;23.45;51.81
82858;BME280;72620;47.774;9.620;2023-09-19T13:55:29;96349.41;;;23.52;49.85
82858;BME280;72620;47.774;9.620;2023-09-19T13:57:56;96351.00;;;23.53;52.54
82858;BME280;72620;47.774;9.620;2023-09-19T14:00:24;96340.53;;;23.53;48.53
82858;BME280;72620;47.774;9.620;2023-09-19T14:02:51;96340.16;;;23.50;49.15
82858;BME280;72620;47.774;9.620;2023-09-19T14:05:19;96338.69;;;23.31;51.91
82858;BME280;72620;47.774;9.620;2023-09-19T14:07:47;96336.09;;;23.42;50.56
82858;BME280;72620;47.774;9.620;2023-09-19T14:10:15;96336.19;;;23.47;51.43
82858;BME280;72620;47.774;9.620;2023-09-19T14:12:44;96339.84;;;23.35;51.86